This is the latest recevied weather packets stored in our database for station/object N7SWJ. If no packets are shown the sender has not sent any weather packets the latest 1 day(s).
| Time | Temp. | Humidity | Pressure | Rain* | Wind** | Luminosity | Snow |
|---|---|---|---|---|---|---|---|
| 1778002856 | 3.89° C | 92% | 1017.5 hPa | 0 mm | 0 m/s | 105 W/m² | - |
| 1778002554 | 3.33° C | 92% | 1017.3 hPa | 0 mm | 0 m/s | 87 W/m² | - |
| 1778002250 | 3.89° C | 92% | 1016.9 hPa | 0 mm | 0 m/s | 117 W/m² | - |
| 1778001948 | 3.33° C | 93% | 1017.3 hPa | 0 mm | 0 m/s | 162 W/m² | - |
| 1778001644 | 3.89° C | 93% | 1017.1 hPa | 0 mm | 0 m/s | 157 W/m² | - |
| 1778001339 | 3.33° C | 94% | 1017.1 hPa | 0 mm | 0 m/s | 124 W/m² | - |
| 1778001037 | 3.33° C | 94% | 1017.1 hPa | 0 mm | 0 m/s | 115 W/m² | - |
| 1778000733 | 3.33° C | 94% | 1017 hPa | 0 mm | 0 m/s | 130 W/m² | - |
| 1778000429 | 3.89° C | 94% | 1016.9 hPa | 0 mm | 0 m/s | 171 W/m² | - |
| 1778000125 | 3.33° C | 94% | 1017.1 hPa | 0 mm | 0 m/s | 193 W/m² | - |
| 1777999820 | 3.33° C | 94% | 1016.9 hPa | 0 mm | 0 m/s | 223 W/m² | - |
| 1777999516 | 3.33° C | 95% | 1017.3 hPa | 0 mm | 0 m/s | 272 W/m² | - |
| 1777999215 | 2.78° C | 95% | 1017.4 hPa | 0 mm | 0 m/s | 263 W/m² | - |
| 1777998913 | 2.78° C | 95% | 1017.1 hPa | 0 mm | 0.45 m/s, 63° | 219 W/m² | - |
| 1777998609 | 3.33° C | 95% | 1017.1 hPa | 0 mm | 0 m/s | 221 W/m² | - |
| 1777998303 | 2.78° C | 95% | 1017.4 hPa | 0 mm | 0 m/s | 232 W/m² | - |
| 1777997999 | 2.22° C | 95% | 1017.5 hPa | 0 mm | 0.45 m/s, 10° | 208 W/m² | - |
| 1777997696 | 2.78° C | 95% | 1017.5 hPa | 0 mm | 0 m/s | 196 W/m² | - |
| 1777997393 | 2.22° C | 95% | 1017.6 hPa | 1.78 mm | 0 m/s | 179 W/m² | - |
| 1777997092 | 2.22° C | 95% | 1017.5 hPa | 1.78 mm | 0 m/s | 169 W/m² | - |
| 1777996788 | 2.22° C | 95% | 1017.5 hPa | 1.27 mm | 0 m/s | 184 W/m² | - |
| 1777996484 | 2.22° C | 95% | 1017.6 hPa | 1.27 mm | 0 m/s | 164 W/m² | - |
| 1777996181 | 1.67° C | 95% | 1017.7 hPa | 3.05 mm | 0 m/s | 171 W/m² | - |
| 1777995877 | 1.67° C | 95% | 1017.6 hPa | 3.05 mm | 0 m/s | 171 W/m² | - |
| 1777995574 | 1.67° C | 95% | 1017.7 hPa | 3.05 mm | 0 m/s | 145 W/m² | - |
* Rain latest hour (hover to see other rain measurements)
** Current wind speed in m/s (hover to see current wind gust speed)